createdAt,value
2018-09-13T00:00:20.279Z,91.10
2018-09-13T00:02:50.565Z,91.10
2018-09-13T00:05:19.675Z,91.00
2018-09-13T00:07:51.421Z,91.10
2018-09-13T00:10:20.481Z,91.20
2018-09-13T00:12:49.364Z,91.10
2018-09-13T00:15:18.261Z,91.10
2018-09-13T00:17:47.425Z,90.80
2018-09-13T00:20:16.359Z,90.60
2018-09-13T00:22:45.402Z,90.60
2018-09-13T00:25:14.371Z,90.80
2018-09-13T00:27:43.438Z,90.70
2018-09-13T00:30:12.336Z,90.80
2018-09-13T00:32:41.415Z,91.00
2018-09-13T00:35:10.406Z,91.00
2018-09-13T00:37:39.256Z,91.10
2018-09-13T00:40:08.389Z,91.10
2018-09-13T00:42:37.366Z,91.00
2018-09-13T00:45:06.217Z,91.10
2018-09-13T00:47:35.192Z,91.10
2018-09-13T00:50:04.203Z,91.00
2018-09-13T00:52:33.534Z,91.00
2018-09-13T00:55:02.341Z,91.00
2018-09-13T00:57:31.512Z,91.10
2018-09-13T01:00:00.538Z,91.20
2018-09-13T01:02:29.414Z,91.10
2018-09-13T01:04:58.272Z,91.00
2018-09-13T01:07:27.125Z,91.10
2018-09-13T01:09:55.989Z,91.00
2018-09-13T01:12:25.544Z,91.00
2018-09-13T01:14:54.490Z,91.00
2018-09-13T01:17:23.432Z,91.00
2018-09-13T01:19:52.258Z,91.00
2018-09-13T01:22:21.168Z,91.00
2018-09-13T01:24:54.139Z,90.90
2018-09-13T01:27:23.651Z,91.10
2018-09-13T01:29:52.809Z,90.90
2018-09-13T01:32:21.931Z,90.90
2018-09-13T01:34:51.092Z,91.10
2018-09-13T01:37:20.242Z,91.20
2018-09-13T01:39:49.459Z,91.30
2018-09-13T01:42:18.419Z,91.20
2018-09-13T01:44:47.240Z,91.30
2018-09-13T01:47:16.423Z,91.30
2018-09-13T01:49:45.250Z,91.50
2018-09-13T01:52:14.150Z,91.40
2018-09-13T01:54:42.996Z,91.60
2018-09-13T01:57:11.874Z,91.20
2018-09-13T01:59:40.858Z,91.40
2018-09-13T02:02:09.786Z,91.40
2018-09-13T02:04:38.571Z,91.40
2018-09-13T02:07:07.921Z,91.40
2018-09-13T02:09:36.809Z,91.30
2018-09-13T02:12:05.718Z,91.40
2018-09-13T02:14:35.379Z,91.50
2018-09-13T02:17:04.326Z,91.60
2018-09-13T02:19:33.218Z,91.60
2018-09-13T02:22:02.024Z,91.90
2018-09-13T02:24:30.900Z,91.70
2018-09-13T02:26:59.767Z,91.60
2018-09-13T02:29:28.859Z,91.60
2018-09-13T02:31:57.870Z,91.70
2018-09-13T02:34:26.904Z,91.70
2018-09-13T02:36:55.704Z,91.70
2018-09-13T02:39:24.555Z,91.70
2018-09-13T02:41:53.498Z,91.70
2018-09-13T02:44:22.361Z,91.90
2018-09-13T02:46:51.210Z,91.90
2018-09-13T02:49:20.122Z,92.10
2018-09-13T02:51:48.952Z,92.00
2018-09-13T02:54:18.080Z,92.00
2018-09-13T02:56:46.928Z,92.00
2018-09-13T02:59:15.878Z,92.10
2018-09-13T03:01:44.779Z,91.90
2018-09-13T03:04:13.629Z,92.00
2018-09-13T03:06:42.506Z,92.10
2018-09-13T03:09:12.968Z,92.30
2018-09-13T03:11:43.264Z,92.30
2018-09-13T03:14:12.774Z,92.70
2018-09-13T03:16:42.078Z,93.10
2018-09-13T03:19:10.997Z,93.30
2018-09-13T03:21:39.917Z,93.30
2018-09-13T03:24:08.760Z,93.20
2018-09-13T03:26:37.559Z,93.70
2018-09-13T03:29:06.726Z,93.90
2018-09-13T03:31:35.747Z,94.30
2018-09-13T03:34:04.701Z,94.20
2018-09-13T03:36:33.522Z,93.80
2018-09-13T03:39:02.700Z,93.90
2018-09-13T03:41:31.559Z,93.80
2018-09-13T03:44:00.417Z,94.30
2018-09-13T03:46:29.229Z,94.40
2018-09-13T03:48:58.135Z,94.40
2018-09-13T03:51:26.934Z,94.80
2018-09-13T03:53:55.752Z,94.80
2018-09-13T03:56:24.600Z,94.60
2018-09-13T03:58:53.520Z,94.30
2018-09-13T04:01:22.338Z,94.30
2018-09-13T04:03:51.318Z,94.20
2018-09-13T04:06:21.010Z,94.00
2018-09-13T04:08:50.188Z,94.30
2018-09-13T04:11:18.982Z,94.70
2018-09-13T04:13:48.398Z,95.00
2018-09-13T04:16:17.258Z,95.10
2018-09-13T04:18:46.130Z,95.50
2018-09-13T04:21:15.039Z,95.60
2018-09-13T04:23:44.421Z,96.10
2018-09-13T04:26:13.260Z,96.30
2018-09-13T04:28:42.500Z,96.40
2018-09-13T04:31:11.747Z,96.60
2018-09-13T04:33:40.640Z,96.80
2018-09-13T04:36:09.850Z,96.60
2018-09-13T04:38:38.639Z,96.40
2018-09-13T04:41:07.911Z,96.50
2018-09-13T04:43:37.134Z,96.30
2018-09-13T04:46:06.298Z,96.10
2018-09-13T04:48:35.123Z,96.40
2018-09-13T04:51:04.182Z,96.40
2018-09-13T04:53:33.344Z,96.60
2018-09-13T04:56:02.208Z,96.70
2018-09-13T04:58:31.096Z,96.50
2018-09-13T05:01:00.787Z,97.10
2018-09-13T05:03:29.776Z,97.40
2018-09-13T05:05:58.738Z,97.50
2018-09-13T05:08:27.637Z,97.70
2018-09-13T05:10:56.693Z,97.90
2018-09-13T05:13:25.739Z,97.90
2018-09-13T05:15:54.693Z,98.10
2018-09-13T05:18:23.738Z,98.20
2018-09-13T05:20:52.740Z,98.10
2018-09-13T05:23:21.571Z,98.30
2018-09-13T05:25:50.581Z,98.60
2018-09-13T05:28:19.468Z,98.80
2018-09-13T05:30:48.522Z,98.80
2018-09-13T05:33:17.455Z,98.70
2018-09-13T05:35:46.395Z,98.50
2018-09-13T05:38:15.277Z,98.40
2018-09-13T05:40:47.024Z,98.70
2018-09-13T05:43:15.961Z,98.60
2018-09-13T05:45:45.421Z,98.70
2018-09-13T05:48:14.258Z,98.60
2018-09-13T05:50:43.093Z,98.60
2018-09-13T05:53:11.934Z,98.70
2018-09-13T05:55:40.819Z,98.70
2018-09-13T05:58:09.690Z,98.80
2018-09-13T06:00:38.572Z,98.40
2018-09-13T06:03:07.887Z,98.50
2018-09-13T06:05:36.780Z,98.70
2018-09-13T06:08:05.916Z,98.50
2018-09-13T06:10:34.999Z,98.40
2018-09-13T06:13:04.019Z,98.70
2018-09-13T06:15:32.932Z,98.90
2018-09-13T06:18:01.769Z,98.90
2018-09-13T06:20:30.730Z,98.80
2018-09-13T06:22:59.745Z,98.70
2018-09-13T06:25:28.631Z,98.30
2018-09-13T06:27:57.620Z,98.50
2018-09-13T06:30:26.763Z,98.50
2018-09-13T06:32:55.809Z,98.40
2018-09-13T06:35:24.929Z,98.50
2018-09-13T06:37:53.917Z,98.50
2018-09-13T06:40:22.738Z,98.40
2018-09-13T06:42:51.668Z,98.50
2018-09-13T06:45:20.931Z,98.70
2018-09-13T06:47:50.523Z,98.80
2018-09-13T06:50:19.686Z,98.80
2018-09-13T06:52:48.676Z,98.70
2018-09-13T06:55:17.772Z,98.60
2018-09-13T06:57:46.822Z,98.50
2018-09-13T07:00:16.750Z,98.40
2018-09-13T07:02:45.619Z,98.40
2018-09-13T07:05:14.694Z,98.40
2018-09-13T07:07:43.797Z,98.60
2018-09-13T07:10:12.731Z,98.60
2018-09-13T07:12:41.702Z,98.50
2018-09-13T07:15:11.500Z,98.70
2018-09-13T07:17:40.560Z,98.60
2018-09-13T07:20:09.711Z,98.60
2018-09-13T07:22:38.780Z,98.60
2018-09-13T07:25:08.072Z,98.60
2018-09-13T07:27:37.179Z,98.30
2018-09-13T07:30:06.279Z,98.00
2018-09-13T07:32:35.368Z,98.20
2018-09-13T07:35:04.707Z,97.80
2018-09-13T07:37:33.835Z,97.90
2018-09-13T07:40:02.811Z,97.80
2018-09-13T07:42:31.942Z,97.70
2018-09-13T07:45:01.209Z,97.70
2018-09-13T07:47:30.133Z,97.50
2018-09-13T07:49:59.233Z,97.50
2018-09-13T07:52:28.420Z,97.70
2018-09-13T07:54:57.250Z,97.60
2018-09-13T07:57:27.089Z,96.90
2018-09-13T07:59:56.218Z,97.10
2018-09-13T08:02:25.340Z,96.70
2018-09-13T08:04:54.262Z,96.90
2018-09-13T08:07:23.152Z,97.20
2018-09-13T08:09:52.038Z,97.60
2018-09-13T08:12:21.026Z,97.50
2018-09-13T08:14:50.120Z,97.50
2018-09-13T08:17:19.037Z,97.40
2018-09-13T08:19:47.945Z,97.00
2018-09-13T08:22:17.563Z,96.50
2018-09-13T08:24:46.481Z,96.40
2018-09-13T08:27:15.838Z,96.60
2018-09-13T08:29:45.067Z,96.10
2018-09-13T08:32:14.016Z,96.40
2018-09-13T08:34:43.090Z,96.50
2018-09-13T08:37:12.297Z,96.70
2018-09-13T08:39:41.496Z,96.60
2018-09-13T08:42:10.598Z,96.80
2018-09-13T08:44:46.232Z,96.60
2018-09-13T08:47:15.394Z,96.60
2018-09-13T08:49:44.420Z,96.20
2018-09-13T08:52:13.665Z,96.10
2018-09-13T08:54:42.651Z,95.90
2018-09-13T08:57:11.581Z,95.90
2018-09-13T08:59:40.661Z,96.10
2018-09-13T09:02:09.854Z,96.20
2018-09-13T09:04:38.914Z,96.10
2018-09-13T09:07:08.024Z,95.40
2018-09-13T09:09:37.285Z,95.10
2018-09-13T09:12:06.623Z,95.00
2018-09-13T09:14:35.795Z,94.90
2018-09-13T09:17:05.022Z,94.90
2018-09-13T09:19:34.037Z,94.90
2018-09-13T09:22:03.198Z,95.00
2018-09-13T09:24:32.329Z,95.20
2018-09-13T09:27:01.284Z,95.30
2018-09-13T09:29:30.668Z,95.40
2018-09-13T09:31:59.773Z,95.40
2018-09-13T09:34:28.834Z,95.80
2018-09-13T09:36:57.952Z,95.70
2018-09-13T09:39:26.909Z,95.20
2018-09-13T09:41:56.223Z,94.80
2018-09-13T09:44:25.196Z,94.90
2018-09-13T09:46:54.369Z,95.10
2018-09-13T09:49:23.523Z,95.00
2018-09-13T09:51:52.801Z,94.90
2018-09-13T09:54:21.762Z,95.10
2018-09-13T09:56:51.019Z,95.10
2018-09-13T09:59:20.058Z,95.20
2018-09-13T10:01:54.388Z,95.60
2018-09-13T10:04:23.434Z,95.60
2018-09-13T10:06:52.488Z,95.80
2018-09-13T10:09:21.625Z,95.90
2018-09-13T10:11:50.665Z,96.30
2018-09-13T10:14:19.671Z,96.10
2018-09-13T10:16:53.938Z,95.80
2018-09-13T10:19:28.468Z,96.00
2018-09-13T10:22:02.725Z,95.90
2018-09-13T10:24:36.913Z,95.80
2018-09-13T10:27:11.102Z,95.70
2018-09-13T10:29:45.499Z,95.70
2018-09-13T10:34:25.337Z,95.80
2018-09-13T10:36:59.632Z,95.70
2018-09-13T10:39:34.422Z,95.70
2018-09-13T10:42:08.763Z,95.70
2018-09-13T10:44:43.202Z,95.70
2018-09-13T10:47:17.601Z,95.50
2018-09-13T10:49:51.938Z,95.60
2018-09-13T10:52:25.722Z,95.10
2018-09-13T10:54:55.048Z,95.30
2018-09-13T10:57:29.154Z,95.20
2018-09-13T10:59:58.320Z,95.30
2018-09-13T11:02:27.412Z,95.00
2018-09-13T11:04:56.538Z,95.10
2018-09-13T11:07:25.621Z,95.20
2018-09-13T11:09:54.968Z,95.30
2018-09-13T11:12:28.121Z,95.10
2018-09-13T11:15:04.688Z,95.10
2018-09-13T11:17:33.824Z,95.30
2018-09-13T11:20:02.896Z,95.30
2018-09-13T11:22:31.937Z,95.30
2018-09-13T11:25:01.017Z,95.30
2018-09-13T11:27:30.321Z,95.30
2018-09-13T11:29:59.476Z,95.40
2018-09-13T11:32:28.611Z,95.30
2018-09-13T11:35:07.462Z,95.40
2018-09-13T11:37:36.451Z,95.30
2018-09-13T11:40:06.031Z,95.40
2018-09-13T11:42:36.046Z,95.50
2018-09-13T11:45:05.722Z,95.50
2018-09-13T11:47:35.180Z,95.50
2018-09-13T11:50:04.833Z,95.40
2018-09-13T11:52:33.853Z,95.20
2018-09-13T11:55:02.983Z,95.50
2018-09-13T11:57:32.140Z,95.40
2018-09-13T12:00:02.156Z,95.60
2018-09-13T12:02:31.696Z,95.50
2018-09-13T12:05:01.592Z,95.50
2018-09-13T12:07:30.811Z,94.90
2018-09-13T12:09:59.828Z,95.10
2018-09-13T12:12:29.049Z,95.50
2018-09-13T12:14:58.285Z,95.60
2018-09-13T12:17:27.412Z,95.50
2018-09-13T12:19:56.332Z,95.10
2018-09-13T12:22:25.663Z,94.90
2018-09-13T12:24:54.581Z,94.70
2018-09-13T12:27:23.802Z,94.50
2018-09-13T12:29:52.773Z,94.40
2018-09-13T12:32:21.697Z,94.50
2018-09-13T12:34:50.680Z,93.20
2018-09-13T12:37:19.615Z,93.10
2018-09-13T12:39:48.770Z,93.20
2018-09-13T12:42:17.645Z,93.40
2018-09-13T12:44:46.675Z,94.10
2018-09-13T12:47:16.108Z,94.10
2018-09-13T12:49:45.196Z,94.40
2018-09-13T12:52:14.339Z,94.30
2018-09-13T12:54:43.335Z,94.10
2018-09-13T12:57:12.729Z,92.80
2018-09-13T12:59:41.758Z,92.60
2018-09-13T13:02:10.968Z,92.40
2018-09-13T13:04:39.857Z,92.60
2018-09-13T13:07:09.120Z,92.60
2018-09-13T13:09:38.076Z,92.60
2018-09-13T13:12:07.138Z,92.40
2018-09-13T13:14:36.170Z,92.20
2018-09-13T13:17:05.375Z,92.30
2018-09-13T13:19:34.611Z,92.50
2018-09-13T13:22:03.515Z,92.60
2018-09-13T13:24:32.498Z,92.80
2018-09-13T13:27:01.681Z,92.40
2018-09-13T13:29:30.684Z,92.30
2018-09-13T13:31:59.681Z,92.50
2018-09-13T13:34:28.656Z,92.70
2018-09-13T13:36:57.813Z,92.70
2018-09-13T13:39:26.878Z,92.80
2018-09-13T13:41:55.794Z,92.90
2018-09-13T13:44:24.786Z,92.80
2018-09-13T13:46:53.955Z,92.80
2018-09-13T13:49:22.900Z,92.40
2018-09-13T13:51:52.124Z,92.00
2018-09-13T13:54:21.405Z,92.00
2018-09-13T13:56:50.335Z,92.00
2018-09-13T13:59:19.518Z,91.90
2018-09-13T14:01:48.376Z,91.70
2018-09-13T14:04:17.340Z,91.60
2018-09-13T14:06:46.268Z,91.80
2018-09-13T14:09:15.442Z,91.80
2018-09-13T14:11:44.432Z,91.50
2018-09-13T14:14:13.337Z,91.60
2018-09-13T14:16:42.169Z,91.30
2018-09-13T14:19:11.279Z,91.10
2018-09-13T14:21:41.555Z,90.70
2018-09-13T14:24:10.949Z,90.40
2018-09-13T14:26:39.905Z,90.00
2018-09-13T14:29:08.963Z,88.60
2018-09-13T14:31:37.937Z,87.50
2018-09-13T14:34:07.034Z,87.70
2018-09-13T14:36:36.791Z,87.80
2018-09-13T14:39:08.049Z,88.20
2018-09-13T14:41:37.015Z,87.90
2018-09-13T14:44:06.550Z,87.90
2018-09-13T14:46:36.480Z,87.90
2018-09-13T14:49:05.797Z,87.00
2018-09-13T14:51:34.902Z,86.20
2018-09-13T14:54:03.940Z,87.10
2018-09-13T14:56:32.814Z,86.20
2018-09-13T14:59:01.951Z,86.60
2018-09-13T15:01:30.939Z,86.40
2018-09-13T15:04:00.016Z,86.00
2018-09-13T15:06:28.962Z,85.40
2018-09-13T15:08:57.878Z,84.60
2018-09-13T15:11:27.242Z,85.00
2018-09-13T15:13:56.088Z,84.80
2018-09-13T15:16:25.662Z,84.90
2018-09-13T15:18:54.760Z,84.90
2018-09-13T15:21:23.632Z,85.80
2018-09-13T15:23:52.772Z,86.70
2018-09-13T15:26:21.833Z,87.60
2018-09-13T15:28:50.922Z,88.00
2018-09-13T15:31:20.020Z,87.50
2018-09-13T15:33:48.997Z,87.30
2018-09-13T15:36:17.943Z,87.20
2018-09-13T15:38:47.059Z,87.60
2018-09-13T15:41:16.168Z,87.10
2018-09-13T15:43:45.465Z,86.60
2018-09-13T15:46:14.353Z,86.50
2018-09-13T15:48:43.366Z,87.00
2018-09-13T15:51:12.445Z,87.60
2018-09-13T15:53:41.642Z,88.50
2018-09-13T15:56:10.695Z,88.80
2018-09-13T15:58:39.794Z,88.90
2018-09-13T16:01:10.537Z,89.50
2018-09-13T16:03:40.649Z,88.80
2018-09-13T16:06:11.750Z,88.10
2018-09-13T16:08:42.538Z,88.00
2018-09-13T16:11:12.713Z,86.70
2018-09-13T16:13:43.012Z,85.50
2018-09-13T16:16:13.496Z,85.00
2018-09-13T16:18:43.480Z,84.90
2018-09-13T16:21:14.022Z,85.20
2018-09-13T16:23:44.310Z,85.00
2018-09-13T16:26:14.943Z,84.80
2018-09-13T16:28:46.037Z,84.70
2018-09-13T16:31:16.606Z,83.90
2018-09-13T16:33:47.838Z,84.20
2018-09-13T16:36:29.062Z,84.30
2018-09-13T16:39:04.455Z,83.00
2018-09-13T16:41:41.774Z,83.10
2018-09-13T16:44:14.923Z,83.40
2018-09-13T16:46:49.060Z,83.10
2018-09-13T16:49:17.925Z,83.00
2018-09-13T16:51:46.799Z,82.90
2018-09-13T16:54:15.650Z,83.10
2018-09-13T16:56:44.524Z,83.50
2018-09-13T16:59:13.419Z,83.80
2018-09-13T17:01:42.395Z,83.70
2018-09-13T17:04:11.336Z,83.30
2018-09-13T17:06:40.317Z,84.30
2018-09-13T17:09:10.099Z,83.90
2018-09-13T17:11:39.086Z,84.30
2018-09-13T17:14:08.617Z,84.70
2018-09-13T17:16:37.480Z,84.30
2018-09-13T17:19:06.451Z,83.90
2018-09-13T17:21:35.398Z,83.90
2018-09-13T17:24:04.517Z,83.90
2018-09-13T17:26:34.674Z,84.10
2018-09-13T17:29:03.540Z,84.30
2018-09-13T17:31:32.400Z,85.00
2018-09-13T17:34:01.279Z,84.50
2018-09-13T17:36:30.221Z,84.60
2018-09-13T17:38:59.211Z,84.50
2018-09-13T17:41:28.028Z,84.90
2018-09-13T17:43:56.897Z,84.70
2018-09-13T17:46:26.756Z,84.50
2018-09-13T17:48:55.880Z,83.90
2018-09-13T17:51:24.701Z,84.50
2018-09-13T17:53:53.805Z,84.50
2018-09-13T17:56:22.693Z,84.40
2018-09-13T17:58:51.632Z,84.40
2018-09-13T18:01:20.501Z,84.80
2018-09-13T18:03:49.569Z,85.10
2018-09-13T18:06:18.637Z,85.70
2018-09-13T18:08:47.725Z,85.60
2018-09-13T18:11:16.558Z,85.80
2018-09-13T18:13:45.412Z,85.80
2018-09-13T18:16:14.261Z,86.20
2018-09-13T18:18:43.098Z,86.80
2018-09-13T18:21:11.941Z,86.60
2018-09-13T18:23:40.939Z,86.60
2018-09-13T18:26:09.969Z,86.70
2018-09-13T18:28:38.976Z,86.50
2018-09-13T18:31:07.873Z,86.60
2018-09-13T18:33:36.749Z,87.00
2018-09-13T18:36:05.638Z,86.70
2018-09-13T18:38:34.671Z,86.90
2018-09-13T18:41:03.507Z,87.30
2018-09-13T18:43:32.562Z,87.60
2018-09-13T18:46:01.481Z,87.30
2018-09-13T18:48:30.428Z,87.60
2018-09-13T18:50:59.240Z,87.50
2018-09-13T18:53:28.158Z,87.70
2018-09-13T18:55:57.136Z,87.60
2018-09-13T18:58:26.179Z,87.70
2018-09-13T19:00:55.019Z,87.80
2018-09-13T19:03:23.901Z,88.20
2018-09-13T19:05:52.779Z,88.30
2018-09-13T19:08:21.696Z,88.50
2018-09-13T19:10:50.620Z,88.80
2018-09-13T19:13:19.690Z,88.80
2018-09-13T19:15:48.799Z,89.00
2018-09-13T19:18:17.977Z,89.10
2018-09-13T19:20:47.414Z,89.30
2018-09-13T19:23:16.239Z,89.40
2018-09-13T19:25:45.112Z,89.50
2018-09-13T19:28:14.138Z,89.40
2018-09-13T19:30:42.976Z,89.40
2018-09-13T19:33:12.063Z,89.60
2018-09-13T19:35:40.913Z,89.80
2018-09-13T19:38:10.160Z,89.80
2018-09-13T19:40:39.114Z,89.80
2018-09-13T19:43:08.023Z,89.70
2018-09-13T19:45:36.901Z,89.80
2018-09-13T19:48:06.494Z,90.00
2018-09-13T19:50:35.497Z,90.10
2018-09-13T19:53:04.227Z,90.10
2018-09-13T19:55:33.100Z,90.20
2018-09-13T19:58:01.947Z,90.30
2018-09-13T20:00:30.804Z,90.40
2018-09-13T20:02:59.728Z,90.30
2018-09-13T20:05:28.600Z,90.30
2018-09-13T20:07:57.439Z,90.40
2018-09-13T20:10:26.318Z,90.50
2018-09-13T20:12:55.230Z,90.50
2018-09-13T20:15:24.054Z,90.60
2018-09-13T20:17:52.873Z,90.30
2018-09-13T20:20:21.735Z,90.40
2018-09-13T20:22:50.562Z,90.70
2018-09-13T20:25:19.437Z,90.40
2018-09-13T20:27:48.294Z,90.10
2018-09-13T20:30:17.257Z,89.90
2018-09-13T20:32:46.193Z,90.10
2018-09-13T20:35:15.118Z,89.90
2018-09-13T20:37:43.874Z,89.60
2018-09-13T20:40:12.920Z,90.00
2018-09-13T20:42:41.796Z,90.00
2018-09-13T20:45:10.569Z,90.10
2018-09-13T20:47:40.252Z,89.60
2018-09-13T20:50:09.278Z,89.60
2018-09-13T20:52:38.080Z,90.00
2018-09-13T20:55:13.721Z,90.00
2018-09-13T20:57:42.503Z,90.00
2018-09-13T21:00:15.581Z,90.10
2018-09-13T21:02:44.411Z,90.10
2018-09-13T21:05:13.259Z,90.20
2018-09-13T21:07:42.096Z,90.30
2018-09-13T21:10:11.015Z,90.30
2018-09-13T21:12:39.931Z,90.40
2018-09-13T21:15:09.316Z,90.30
2018-09-13T21:17:38.155Z,90.40
2018-09-13T21:20:07.329Z,90.30
2018-09-13T21:22:36.161Z,90.40
2018-09-13T21:25:05.379Z,90.40
2018-09-13T21:27:34.256Z,90.40
2018-09-13T21:30:03.501Z,90.50
2018-09-13T21:32:32.284Z,90.40
2018-09-13T21:35:01.191Z,90.50
2018-09-13T21:37:30.013Z,90.60
2018-09-13T21:39:58.956Z,90.70
2018-09-13T21:42:27.774Z,90.50
2018-09-13T21:44:56.590Z,90.60
2018-09-13T21:47:25.420Z,90.50
2018-09-13T21:49:54.294Z,90.50
2018-09-13T21:52:23.230Z,90.60
2018-09-13T21:54:52.088Z,90.70
2018-09-13T21:57:20.915Z,90.80
2018-09-13T21:59:49.739Z,90.80
2018-09-13T22:02:18.513Z,91.00
2018-09-13T22:04:47.409Z,91.00
2018-09-13T22:07:16.638Z,91.00
2018-09-13T22:09:45.646Z,90.90
2018-09-13T22:12:14.823Z,90.80
2018-09-13T22:14:43.638Z,90.80
2018-09-13T22:17:12.735Z,91.00
2018-09-13T22:19:41.614Z,91.30
2018-09-13T22:22:10.453Z,91.30
2018-09-13T22:24:39.302Z,91.50
2018-09-13T22:27:08.165Z,91.60
2018-09-13T22:29:37.153Z,91.80
2018-09-13T22:32:06.056Z,92.20
2018-09-13T22:34:35.109Z,92.60
2018-09-13T22:37:03.931Z,92.60
2018-09-13T22:39:32.738Z,92.90
2018-09-13T22:42:01.597Z,93.20
2018-09-13T22:44:34.640Z,93.30
2018-09-13T22:47:03.439Z,93.50
2018-09-13T22:49:32.190Z,93.70
2018-09-13T22:52:01.011Z,93.80
2018-09-13T22:54:29.950Z,94.00
2018-09-13T22:56:58.770Z,94.20
2018-09-13T22:59:27.893Z,94.30
2018-09-13T23:01:57.006Z,94.40
2018-09-13T23:04:25.856Z,94.60
2018-09-13T23:06:54.831Z,94.60
2018-09-13T23:09:23.632Z,94.70
2018-09-13T23:11:52.458Z,94.80
2018-09-13T23:14:21.477Z,94.70
2018-09-13T23:16:50.300Z,94.60
2018-09-13T23:19:19.288Z,94.60
2018-09-13T23:21:48.039Z,94.60
2018-09-13T23:24:16.778Z,94.70
2018-09-13T23:26:45.881Z,94.70
2018-09-13T23:29:15.104Z,94.80
2018-09-13T23:31:43.933Z,94.80
2018-09-13T23:34:12.681Z,94.90
2018-09-13T23:36:41.476Z,95.00
2018-09-13T23:39:10.936Z,95.00
2018-09-13T23:41:40.902Z,95.00
2018-09-13T23:44:09.783Z,95.00
2018-09-13T23:46:38.613Z,95.10
2018-09-13T23:49:07.413Z,95.20
2018-09-13T23:51:36.324Z,95.10
2018-09-13T23:54:05.091Z,95.20
2018-09-13T23:56:34.016Z,95.30
2018-09-13T23:59:02.854Z,95.30
